Terminal Aerodrome Forecast
Issued by NWS

Home | Current Version | Previous Version | Text Only | Print | Product List | Glossary On
Versions: 1 2 3 4 5 6 7 8 9 10 11
000
FTUS41 KBTV 240531
TAFPBG
TAF
KPBG 240531Z 2406/2506 01004KT P6SM OVC090
     FM240900 VRB03KT P6SM VCSH OVC060
     FM241200 15006KT P6SM -SHRA SCT035 OVC050
     FM241600 14007KT 4SM -SHRA BR OVC025
     FM241800 13008KT 3SM SHRA BR OVC017
     FM242200 14008KT 4SM -SHRA BR OVC020=

USA.gov is the U.S. government's official web portal to all federal, state and local government web resources and services.